Flight Track Log - Related Links

Times and Time Zones

All times are in EDT time to prevent confusion due to time zone crossing. See the SWA499 flight status page for this flight to view local times or setup timezone preferences in your user account.

Time Position Orientation Groundspeed Altitude Reporting Facility
EDT Latitude Longitude Course Direction KTS MPH feet Rate Location/Type
Mon 12:32:16 PM 39.8167 -104.6333 65° Northeast 186 214 6,700  Level Denver TRACON
Mon 12:32:33 PM 39.8275 -104.6036 65° Northeast 193 222 7,200 1,671 Climbing Denver Center
Mon 12:33:35 PM 39.8614 -104.5308 59° Northeast 242 278 8,900 1,355 Climbing Denver Center
Mon 12:34:37 PM 39.9058 -104.4258 61° Northeast 312 359 10,000 1,887 Climbing Denver Center
Mon 12:35:39 PM 39.9133 -104.3006 85° East 347 399 12,800 3,194 Climbing Denver Center
Mon 12:36:41 PM 39.9083 -104.1642 93° East 351 404 16,600 3,097 Climbing Denver Center
Mon 12:37:43 PM 39.9006 -104.0267 94° East 384 442 19,200 2,661 Climbing Denver Center
Mon 12:38:45 PM 39.8908 -103.8697 95° East 410 472 22,100 2,516 Climbing Denver Center
Mon 12:39:47 PM 39.8856 -103.7206 93° East 416 479 24,400 2,323 Climbing Denver Center
Mon 12:40:49 PM 39.9036 -103.5614 82° East 437 503 26,900 2,274 Climbing Denver Center
Mon 12:41:51 PM 39.9222 -103.4000 81° East 448 516 29,100 1,984 Climbing Denver Center
Mon 12:42:53 PM 39.9406 -103.2328 82° East 461 531 31,000 2,208 Climbing Denver Center
Mon 12:43:56 PM 39.9614 -103.0381 82° East 461 531 33,700 2,160 Climbing Denver Center
Mon 12:44:58 PM 39.9803 -102.8758 81° East 452 520 35,500 1,597 Climbing Denver Center
Mon 12:46:00 PM 39.9967 -102.7108 83° East 455 524 37,000 1,210 Climbing Denver Center
Mon 12:47:02 PM 40.0158 -102.5408 82° East 458 527 38,000 968 Climbing Denver Center
Mon 12:48:04 PM 40.0328 -102.3811 82° East 464 534 39,000 484 Climbing Denver Center
Mon 12:49:06 PM 40.0517 -102.1958 82° East 461 531 39,000 -387 Level Denver Center
Mon 12:50:08 PM 40.0669 -102.0383 83° East 458 527 38,200 -823 Descending Denver Center
Mon 12:51:10 PM 40.0875 -101.8528 82° East 464 534 37,300 -581 Descending Denver Center
Mon 12:52:12 PM 40.0953 -101.6919 86° East 466 536 37,000 -145 Descending Denver Center
Mon 12:53:14 PM 40.1022 -101.5039 87° East 466 536 37,000  Level Denver Center
Mon 12:54:16 PM 40.1094 -101.3422 87° East 466 536 37,000  Level Denver Center
Mon 12:55:18 PM 40.1169 -101.1533 87° East 468 539 37,000  Level Denver Center
Mon 12:56:20 PM 40.1222 -100.9917 88° East 468 539 37,000  Level Denver Center
Mon 12:57:22 PM 40.1292 -100.8028 87° East 469 540 37,000  Level Denver Center
Mon 12:58:24 PM 40.1342 -100.6419 88° East 467 537 37,000  Level Denver Center
Mon 12:59:26 PM 40.1411 -100.4550 87° East 463 533 37,000  Level Denver Center
Mon 01:00:28 PM 40.1458 -100.2928 88° East 469 540 37,000  Level Denver Center
Mon 01:01:30 PM 40.1519 -100.1036 88° East 468 539 37,000  Level Denver Center
Mon 01:02:45 PM 40.1578 -99.8964 88° East 469 540 37,000  Level Denver Center
Mon 01:03:47 PM 40.1625 -99.7256 88° East 471 542 37,000  Level Denver Center
Mon 01:04:49 PM 40.1664 -99.5553 88° East 470 541 37,000  Level Denver Center
Mon 01:05:51 PM 40.1717 -99.3836 88° East 473 544 37,000  Level Denver Center
Mon 01:06:53 PM 40.1744 -99.2125 89° East 472 543 37,000  Level Denver Center
Mon 01:07:55 PM 40.1789 -99.0058 88° East 477 549 37,000  Level Denver Center
Mon 01:08:56 PM 40.1822 -98.8706 88° East 472 543 37,000  Level Denver Center
Mon 01:09:40 PM 40.1844 -98.7342 89° East 473 544 37,000  Level Minneapolis Center
Mon 01:10:42 PM 40.1869 -98.5294 89° East 472 543 37,000  Level Minneapolis Center
Mon 01:11:44 PM 40.1897 -98.3589 89° East 471 542 37,000  Level Minneapolis Center
Mon 01:12:58 PM 40.1922 -98.1892 89° East 470 541 37,000  Level Minneapolis Center
Mon 01:14:00 PM 40.1942 -97.9825 89° East 474 545 37,000  Level Minneapolis Center
Mon 01:15:02 PM 40.1958 -97.8117 89° East 472 543 37,000  Level Minneapolis Center
Mon 01:16:16 PM 40.1978 -97.6408 89° East 471 542 37,000  Level Minneapolis Center
Mon 01:17:18 PM 40.1981 -97.4033 90° East 470 541 37,000 -339 Level Minneapolis Center
Mon 01:18:20 PM 40.2000 -97.2597 89° East 466 536 36,300 -1,306 Descending Minneapolis Center
Mon 01:19:22 PM 40.2000 -97.0542 90° East 471 542 34,300 -1,935 Descending Minneapolis Center
Mon 01:20:24 PM 40.2017 -96.8758 89° East 486 559 32,300 -2,244 Descending Minneapolis Center
Mon 01:21:25 PM 40.2008 -96.6997 90° East 488 562 29,700 -2,439 Descending Minneapolis Center
Mon 01:22:27 PM 40.2011 -96.5281 90° East 478 550 27,300 -2,274 Descending Minneapolis Center
Mon 01:23:29 PM 40.2006 -96.3633 90° East 462 532 25,000 -2,177 Descending Minneapolis Center
Mon 01:24:31 PM 40.1947 -96.2061 93° East 444 511 22,800 -1,742 Descending Minneapolis Center
Mon 01:25:33 PM 40.1286 -96.0458 118° Southeast 424 488 21,400 -1,161 Descending Minneapolis Center
Mon 01:26:35 PM 40.0725 -95.9194 120° Southeast 409 471 20,400 -1,317 Descending Minneapolis Center
Mon 01:27:36 PM 40.0167 -95.7919 120° Southeast 408 470 18,700 -2,000 Descending Minneapolis Center
Mon 01:28:38 PM 39.9617 -95.6683 120° Southeast 403 464 16,300 -2,226 Descending Minneapolis Center
Mon 01:29:40 PM 39.9086 -95.5500 120° Southeast 394 453 14,100 -2,198 Descending Minneapolis Center
Mon 01:30:19 PM 39.8697 -95.4656 121° Southeast 370 426 12,600 -1,426 Descending Kansas City Center
Mon 01:31:21 PM 39.8078 -95.3769 132° Southeast 345 397 11,700 -1,016 Descending Kansas City Center
Mon 01:32:23 PM 39.7308 -95.2986 142° Southeast 313 360 10,500 -1,258 Descending Kansas City Center
Mon 01:33:25 PM 39.6706 -95.2347 141° Southeast 294 338 9,100 -1,355 Descending Kansas City Center
Mon 01:34:27 PM 39.6394 -95.1356 112° Southeast 314 361 7,700 -1,016 Descending Kansas City Center
Mon 01:35:29 PM 39.6069 -95.0211 110° East 301 346 7,000 -823 Descending Kansas City Center
Mon 01:36:31 PM 39.5814 -94.9264 109° East 291 335 6,000 -484 Descending Kansas City Center
Mon 01:37:33 PM 39.5533 -94.8239 110° East 271 312 6,000 -484 Level Kansas City Center
Mon 01:38:35 PM 39.5303 -94.7386 109° East 262 302 5,000 -919 Descending Kansas City Center
Mon 01:39:37 PM 39.4711 -94.6892 147° Southeast 232 267 4,100 -919 Descending Kansas City Center
Mon 01:40:39 PM 39.4231 -94.6914 182° South 179 206 3,100 -968 Descending Kansas City Center
Mon 01:41:41 PM 39.3775 -94.7044 192° South 150 173 2,100 -816 Descending Kansas City Center
Mon 01:42:44 PM 39.3428 -94.7147 193° South 136 157 1,400 -576 Descending Kansas City Center
Mon 01:43:46 PM 39.3086 -94.7250 193° South 135 155 900 -484 Descending Kansas City Center

Login

Don't have an account? Register now (free) for customized features, flight alerts, and more!